createdAt,value
2022-12-01T00:01:22.692Z,99893.03
2022-12-01T00:03:50.249Z,99892.53
2022-12-01T00:06:20.128Z,99894.53
2022-12-01T00:09:08.756Z,99894.69
2022-12-01T00:11:37.927Z,99897.47
2022-12-01T00:14:05.691Z,99897.62
2022-12-01T00:16:34.127Z,99896.94
2022-12-01T00:19:01.927Z,99891.84
2022-12-01T00:21:29.045Z,99900.56
2022-12-01T00:23:57.903Z,99900.59
2022-12-01T00:26:27.515Z,99898.16
2022-12-01T00:28:56.841Z,99900.78
2022-12-01T00:31:24.159Z,99900.72
2022-12-01T00:33:51.592Z,99906.81
2022-12-01T00:36:18.673Z,99904.28
2022-12-01T00:38:45.799Z,99903.47
2022-12-01T00:41:13.239Z,99907.72
2022-12-01T00:43:41.227Z,99904.41
2022-12-01T00:46:08.822Z,99906.16
2022-12-01T00:48:36.173Z,99900.94
2022-12-01T00:51:03.314Z,99905.34
2022-12-01T00:53:30.439Z,99907.97
2022-12-01T00:55:57.896Z,99914.03
2022-12-01T00:58:25.425Z,99912.38
2022-12-01T01:01:00.329Z,99911.59
2022-12-01T01:03:28.792Z,99911.75
2022-12-01T01:05:55.866Z,99911.72
2022-12-01T01:08:22.861Z,99909.22
2022-12-01T01:10:50.802Z,99913.62
2022-12-01T01:13:17.889Z,99911.00
2022-12-01T01:15:44.898Z,99901.50
2022-12-01T01:18:12.457Z,99904.19
2022-12-01T01:20:39.572Z,99900.66
2022-12-01T01:23:06.732Z,99903.38
2022-12-01T01:25:34.244Z,99911.25
2022-12-01T01:28:01.249Z,99903.47
2022-12-01T01:30:28.417Z,99901.72
2022-12-01T01:32:55.949Z,99900.88
2022-12-01T01:35:23.022Z,99897.28
2022-12-01T01:37:50.981Z,99894.72
2022-12-01T01:40:18.767Z,99891.25
2022-12-01T01:42:46.237Z,99891.28
2022-12-01T01:45:29.620Z,99893.06
2022-12-01T01:48:00.248Z,99900.03
2022-12-01T01:50:28.589Z,99899.09
2022-12-01T01:53:01.416Z,99904.38
2022-12-01T01:55:31.921Z,99909.72
2022-12-01T01:57:59.793Z,99903.66
2022-12-01T02:00:26.825Z,99900.28
2022-12-01T02:02:56.324Z,99908.13
2022-12-01T02:05:26.898Z,99908.13
2022-12-01T02:07:57.066Z,99903.72
2022-12-01T02:10:48.528Z,99896.72
2022-12-01T02:13:27.816Z,99897.81
2022-12-01T02:16:06.989Z,99889.28
2022-12-01T02:18:50.736Z,99887.59
2022-12-01T02:21:59.051Z,99885.00
2022-12-01T02:24:26.064Z,99892.03
2022-12-01T02:27:01.459Z,99889.25
2022-12-01T02:30:06.035Z,99887.59
2022-12-01T02:33:00.411Z,99885.97
2022-12-01T02:35:42.446Z,99890.34
2022-12-01T02:38:38.564Z,99886.78
2022-12-01T02:41:10.407Z,99885.88
2022-12-01T02:43:45.394Z,99877.09
2022-12-01T02:46:19.869Z,99890.16
2022-12-01T02:48:51.760Z,99890.97
2022-12-01T02:51:29.005Z,99883.09
2022-12-01T02:53:58.868Z,99883.91
2022-12-01T02:56:26.229Z,99885.84
2022-12-01T02:58:53.550Z,99884.00
2022-12-01T03:01:50.843Z,99883.09
2022-12-01T03:04:31.962Z,99884.75
2022-12-01T03:07:08.307Z,99887.44
2022-12-01T03:09:51.162Z,99893.50
2022-12-01T03:12:46.363Z,99895.22
2022-12-01T03:15:35.805Z,99888.38
2022-12-01T03:18:16.218Z,99890.16
2022-12-01T03:20:57.071Z,99884.91
2022-12-01T03:23:29.739Z,99880.59
2022-12-01T03:26:02.097Z,99882.25
2022-12-01T03:28:33.458Z,99874.47
2022-12-01T03:31:11.946Z,99877.97
2022-12-01T03:33:47.159Z,99877.91
2022-12-01T03:36:22.828Z,99869.13
2022-12-01T03:38:55.685Z,99866.53
2022-12-01T03:41:29.784Z,99863.94
2022-12-01T03:44:04.015Z,99859.59
2022-12-01T03:46:49.006Z,99862.13
2022-12-01T03:49:18.297Z,99858.66
2022-12-01T03:52:04.266Z,99856.87
2022-12-01T03:54:38.535Z,99838.66
2022-12-01T03:57:10.433Z,99839.44
2022-12-01T03:59:41.226Z,99837.84
2022-12-01T04:02:08.461Z,99830.84
2022-12-01T04:04:35.881Z,99830.88
2022-12-01T04:07:03.618Z,99824.88
2022-12-01T04:09:30.696Z,99823.88
2022-12-01T04:12:16.419Z,99823.00
2022-12-01T04:14:43.448Z,99821.25
2022-12-01T04:17:10.725Z,99828.97
2022-12-01T04:19:37.743Z,99837.62
2022-12-01T04:22:04.865Z,99849.81
2022-12-01T04:24:33.736Z,99860.19
2022-12-01T04:27:00.772Z,99868.09
2022-12-01T04:29:27.746Z,99872.44
2022-12-01T04:31:55.027Z,99879.41
2022-12-01T04:34:22.120Z,99880.34
2022-12-01T04:36:49.176Z,99872.56
2022-12-01T04:39:16.892Z,99869.13
2022-12-01T04:41:43.918Z,99869.25
2022-12-01T04:44:11.408Z,99857.09
2022-12-01T04:46:38.868Z,99864.09
2022-12-01T04:49:06.166Z,99872.78
2022-12-01T04:51:33.295Z,99887.50
2022-12-01T04:54:02.322Z,99888.38
2022-12-01T04:56:29.305Z,99881.56
2022-12-01T04:58:56.354Z,99888.59
2022-12-01T05:01:23.856Z,99884.22
2022-12-01T05:03:51.092Z,99893.81
2022-12-01T05:06:21.801Z,99895.63
2022-12-01T05:08:50.420Z,99893.00
2022-12-01T05:11:18.837Z,99890.47
2022-12-01T05:13:47.688Z,99881.81
2022-12-01T05:16:21.303Z,99883.47
2022-12-01T05:19:18.280Z,99880.06
2022-12-01T05:21:47.358Z,99881.84
2022-12-01T05:24:15.410Z,99883.50
2022-12-01T05:26:43.778Z,99882.75
2022-12-01T05:29:12.460Z,99878.37
2022-12-01T05:31:40.131Z,99881.03
2022-12-01T05:34:08.187Z,99887.16
2022-12-01T05:36:36.447Z,99888.91
2022-12-01T05:39:04.599Z,99893.25
2022-12-01T05:41:31.709Z,99902.00
2022-12-01T05:43:59.029Z,99893.38
2022-12-01T05:46:26.063Z,99889.94
2022-12-01T05:48:53.171Z,99900.28
2022-12-01T05:51:20.641Z,99902.94
2022-12-01T05:53:47.678Z,99902.06
2022-12-01T05:56:14.690Z,99902.06
2022-12-01T05:58:42.011Z,99900.38
2022-12-01T06:01:09.253Z,99908.22
2022-12-01T06:03:36.579Z,99905.59
2022-12-01T06:06:03.825Z,99911.72
2022-12-01T06:08:30.842Z,99916.00
2022-12-01T06:10:58.150Z,99919.47
2022-12-01T06:13:25.521Z,99916.94
2022-12-01T06:16:04.304Z,99925.59
2022-12-01T06:18:35.144Z,99922.97
2022-12-01T06:21:03.060Z,99925.56
2022-12-01T06:23:30.846Z,99917.81
2022-12-01T06:26:01.675Z,99925.63
2022-12-01T06:28:28.805Z,99923.91
2022-12-01T06:31:02.602Z,99919.56
2022-12-01T06:33:31.956Z,99917.81
2022-12-01T06:36:04.415Z,99914.38
2022-12-01T06:38:33.821Z,99916.94
2022-12-01T06:41:01.221Z,99913.41
2022-12-01T06:43:28.749Z,99910.81
2022-12-01T06:46:01.285Z,99911.69
2022-12-01T06:48:30.794Z,99912.56
2022-12-01T06:50:58.984Z,99917.78
2022-12-01T06:53:28.361Z,99915.16
2022-12-01T06:56:03.473Z,99916.91
2022-12-01T06:58:31.099Z,99928.16
2022-12-01T07:00:59.151Z,99924.66
2022-12-01T07:03:26.836Z,99926.38
2022-12-01T07:05:59.363Z,99925.47
2022-12-01T07:08:27.381Z,99928.03
2022-12-01T07:10:58.605Z,99925.44
2022-12-01T07:13:30.090Z,99927.22
2022-12-01T07:16:03.593Z,99927.16
2022-12-01T07:18:31.534Z,99934.94
2022-12-01T07:21:03.262Z,99922.66
2022-12-01T07:23:31.308Z,99925.19
2022-12-01T07:26:18.809Z,99920.84
2022-12-01T07:28:46.315Z,99920.00
2022-12-01T07:31:16.276Z,99915.63
2022-12-01T07:33:43.722Z,99913.88
2022-12-01T07:36:12.244Z,99915.56
2022-12-01T07:38:39.844Z,99913.72
2022-12-01T07:41:07.966Z,99919.75
2022-12-01T07:43:35.911Z,99927.53
2022-12-01T07:46:08.855Z,99927.47
2022-12-01T07:48:37.913Z,99923.81
2022-12-01T07:51:06.306Z,99932.41
2022-12-01T07:53:33.503Z,99928.75
2022-12-01T07:56:04.357Z,99931.22
2022-12-01T07:58:35.688Z,99942.47
2022-12-01T08:01:14.754Z,99937.97
2022-12-01T08:03:43.014Z,99935.25
2022-12-01T08:06:10.778Z,99933.13
2022-12-01T08:08:40.685Z,99939.00
2022-12-01T08:11:12.297Z,99933.44
2022-12-01T08:13:40.778Z,99934.19
2022-12-01T08:16:10.516Z,99937.31
2022-12-01T08:18:39.800Z,99939.97
2022-12-01T08:21:09.202Z,99935.50
2022-12-01T08:23:36.627Z,99930.16
2022-12-01T08:26:05.445Z,99921.03
2022-12-01T08:28:35.358Z,99914.56
2022-12-01T08:31:09.009Z,99918.91
2022-12-01T08:33:36.716Z,99917.78
2022-12-01T08:36:05.337Z,99929.56
2022-12-01T08:38:32.534Z,99929.44
2022-12-01T08:41:01.358Z,99935.47
2022-12-01T08:43:56.111Z,99936.09
2022-12-01T08:46:15.879Z,99938.47
2022-12-01T08:48:43.294Z,99944.97
2022-12-01T08:51:15.736Z,99945.75
2022-12-01T08:53:47.234Z,99949.16
2022-12-01T08:56:21.503Z,99945.34
2022-12-01T08:58:48.686Z,99946.06
2022-12-01T09:01:16.694Z,99952.78
2022-12-01T09:03:44.510Z,99950.03
2022-12-01T09:06:13.070Z,99949.03
2022-12-01T09:08:41.252Z,99948.16
2022-12-01T09:11:15.929Z,99937.25
2022-12-01T09:13:44.332Z,99937.03
2022-12-01T09:16:14.217Z,99944.12
2022-12-01T09:18:42.625Z,99935.19
2022-12-01T09:21:18.919Z,99933.34
2022-12-01T09:23:46.855Z,99933.50
2022-12-01T09:26:18.522Z,99934.19
2022-12-01T09:28:52.322Z,99926.31
2022-12-01T09:31:20.823Z,99922.56
2022-12-01T09:33:48.223Z,99922.50
2022-12-01T09:36:15.381Z,99909.78
2022-12-01T09:38:42.775Z,99917.31
2022-12-01T09:41:21.783Z,99913.72
2022-12-01T09:43:58.465Z,99914.69
2022-12-01T09:46:32.745Z,99905.22
2022-12-01T09:49:03.378Z,99910.28
2022-12-01T09:51:34.823Z,99914.53
2022-12-01T09:54:03.095Z,99908.63
2022-12-01T09:56:36.432Z,99902.22
2022-12-01T09:59:08.247Z,99909.37
2022-12-01T10:01:41.622Z,99912.69
2022-12-01T10:04:44.027Z,99903.22
2022-12-01T10:07:18.769Z,99899.69
2022-12-01T10:09:57.527Z,99901.22
2022-12-01T10:12:27.882Z,99892.91
2022-12-01T10:15:32.964Z,99893.78
2022-12-01T10:18:21.838Z,99894.25
2022-12-01T10:21:11.111Z,99894.91
2022-12-01T10:23:56.763Z,99886.19
2022-12-01T10:26:35.035Z,99889.97
2022-12-01T10:29:12.265Z,99888.38
2022-12-01T10:31:53.511Z,99877.53
2022-12-01T10:34:27.017Z,99878.47
2022-12-01T10:36:54.922Z,99875.44
2022-12-01T10:39:36.367Z,99869.13
2022-12-01T10:42:37.682Z,99875.78
2022-12-01T10:45:09.703Z,99872.44
2022-12-01T10:47:37.468Z,99877.19
2022-12-01T10:50:04.902Z,99878.13
2022-12-01T10:52:31.818Z,99869.94
2022-12-01T10:54:59.815Z,99874.41
2022-12-01T10:57:29.647Z,99872.56
2022-12-01T11:00:07.204Z,99872.91
2022-12-01T11:02:35.867Z,99875.41
2022-12-01T11:05:07.171Z,99872.28
2022-12-01T11:07:47.858Z,99868.88
2022-12-01T11:10:26.039Z,99863.63
2022-12-01T11:12:57.157Z,99857.75
2022-12-01T11:15:30.892Z,99848.72
2022-12-01T11:18:06.402Z,99847.63
2022-12-01T11:20:33.632Z,99847.16
2022-12-01T11:23:10.059Z,99845.22
2022-12-01T11:25:37.198Z,99843.03
2022-12-01T11:28:05.392Z,99840.06
2022-12-01T11:30:33.419Z,99842.69
2022-12-01T11:33:03.201Z,99837.25
2022-12-01T11:35:37.736Z,99842.09
2022-12-01T11:38:28.707Z,99838.28
2022-12-01T11:40:57.685Z,99836.41
2022-12-01T11:43:32.167Z,99827.97
2022-12-01T11:46:06.626Z,99821.19
2022-12-01T11:48:36.415Z,99833.41
2022-12-01T11:51:06.875Z,99836.91
2022-12-01T11:53:39.307Z,99838.41
2022-12-01T11:56:23.572Z,99842.09
2022-12-01T11:58:58.061Z,99831.44
2022-12-01T12:01:38.540Z,99832.06
2022-12-01T12:04:33.291Z,99833.59
2022-12-01T12:07:03.261Z,99827.34
2022-12-01T12:10:24.812Z,99821.59
2022-12-01T12:13:15.520Z,99826.37
2022-12-01T12:15:57.986Z,99827.75
2022-12-01T12:18:39.913Z,99817.09
2022-12-01T12:21:25.584Z,99829.50
2022-12-01T12:24:08.613Z,99830.03
2022-12-01T12:26:59.861Z,99826.47
2022-12-01T12:29:48.876Z,99824.84
2022-12-01T12:32:34.547Z,99820.03
2022-12-01T12:35:13.887Z,99819.84
2022-12-01T12:38:08.703Z,99815.72
2022-12-01T12:40:54.793Z,99814.91
2022-12-01T12:43:49.739Z,99815.28
2022-12-01T12:46:36.345Z,99818.09
2022-12-01T12:49:21.682Z,99815.41
2022-12-01T12:52:08.410Z,99816.91
2022-12-01T12:54:46.164Z,99816.88
2022-12-01T12:57:31.264Z,99814.09
2022-12-01T13:00:15.528Z,99815.28
2022-12-01T13:02:48.565Z,99810.59
2022-12-01T13:05:20.937Z,99813.28
2022-12-01T13:08:14.222Z,99808.16
2022-12-01T13:10:58.788Z,99817.44
2022-12-01T13:13:43.501Z,99810.59
2022-12-01T13:16:15.339Z,99808.03
2022-12-01T13:19:28.148Z,99813.22
2022-12-01T13:21:56.444Z,99810.06
2022-12-01T13:24:25.486Z,99805.84
2022-12-01T13:27:10.820Z,99811.44
2022-12-01T13:29:43.861Z,99812.22
2022-12-01T13:32:36.166Z,99816.88
2022-12-01T13:35:24.999Z,99814.22
2022-12-01T13:37:53.012Z,99817.75
2022-12-01T13:40:27.862Z,99810.06
2022-12-01T13:43:10.252Z,99808.81
2022-12-01T13:45:40.587Z,99813.09
2022-12-01T13:48:49.886Z,99812.03
2022-12-01T13:51:17.257Z,99811.09
2022-12-01T13:54:26.206Z,99805.91
2022-12-01T13:57:04.899Z,99806.84
2022-12-01T14:00:10.762Z,99807.56
2022-12-01T14:02:40.515Z,99820.69
2022-12-01T14:05:23.440Z,99807.62
2022-12-01T14:07:52.531Z,99809.84
2022-12-01T14:10:31.043Z,99803.06
2022-12-01T14:13:03.490Z,99798.84
2022-12-01T14:15:34.688Z,99798.06
2022-12-01T14:18:18.879Z,99795.50
2022-12-01T14:20:48.735Z,99796.75
2022-12-01T14:23:29.014Z,99802.63
2022-12-01T14:26:18.582Z,99803.06
2022-12-01T14:29:03.541Z,99804.09
2022-12-01T14:31:34.162Z,99804.44
2022-12-01T14:34:31.641Z,99801.88
2022-12-01T14:37:06.861Z,99801.81
2022-12-01T14:39:40.360Z,99803.59
2022-12-01T14:42:10.438Z,99800.31
2022-12-01T14:44:47.636Z,99807.69
2022-12-01T14:47:22.914Z,99805.22
2022-12-01T14:49:52.823Z,99807.16
2022-12-01T14:52:28.990Z,99811.72
2022-12-01T14:55:03.907Z,99809.22
2022-12-01T14:57:37.711Z,99811.16
2022-12-01T15:00:18.470Z,99815.69
2022-12-01T15:02:55.036Z,99811.56
2022-12-01T15:05:27.560Z,99809.91
2022-12-01T15:08:18.772Z,99814.38
2022-12-01T15:10:59.944Z,99806.62
2022-12-01T15:13:44.058Z,99815.47
2022-12-01T15:16:19.960Z,99811.16
2022-12-01T15:18:48.057Z,99807.72
2022-12-01T15:21:23.249Z,99813.03
2022-12-01T15:24:02.077Z,99800.00
2022-12-01T15:26:35.221Z,99795.72
2022-12-01T15:29:05.697Z,99801.88
2022-12-01T15:31:34.675Z,99807.19
2022-12-01T15:34:02.156Z,99804.66
2022-12-01T15:36:29.571Z,99806.50
2022-12-01T15:39:03.612Z,99811.00
2022-12-01T15:41:35.780Z,99805.00
2022-12-01T15:44:05.368Z,99807.75
2022-12-01T15:46:37.142Z,99809.50
2022-12-01T15:49:27.650Z,99813.88
2022-12-01T15:52:03.709Z,99806.16
2022-12-01T15:54:31.624Z,99807.97
2022-12-01T15:56:59.306Z,99811.53
2022-12-01T15:59:35.123Z,99822.94
2022-12-01T16:02:32.020Z,99816.03
2022-12-01T16:05:01.640Z,99819.69
2022-12-01T16:08:10.905Z,99814.62
2022-12-01T16:10:34.192Z,99817.37
2022-12-01T16:13:39.769Z,99820.03
2022-12-01T16:16:38.895Z,99822.72
2022-12-01T16:19:08.913Z,99821.03
2022-12-01T16:21:44.152Z,99821.13
2022-12-01T16:24:25.864Z,99815.97
2022-12-01T16:26:57.537Z,99816.88
2022-12-01T16:29:27.558Z,99810.84
2022-12-01T16:32:19.218Z,99816.09
2022-12-01T16:34:46.737Z,99813.53
2022-12-01T16:37:15.264Z,99812.66
2022-12-01T16:39:42.786Z,99822.28
2022-12-01T16:42:13.683Z,99822.31
2022-12-01T16:44:41.984Z,99815.41
2022-12-01T16:47:23.734Z,99813.66
2022-12-01T16:49:52.217Z,99819.03
2022-12-01T16:52:43.758Z,99813.78
2022-12-01T16:55:20.614Z,99813.78
2022-12-01T16:57:47.580Z,99819.88
2022-12-01T17:00:15.313Z,99817.44
2022-12-01T17:02:42.469Z,99822.66
2022-12-01T17:05:11.216Z,99823.69
2022-12-01T17:07:38.714Z,99825.37
2022-12-01T17:10:07.114Z,99829.81
2022-12-01T17:12:34.105Z,99839.50
2022-12-01T17:15:01.449Z,99832.63
2022-12-01T17:17:29.670Z,99833.53
2022-12-01T17:19:57.793Z,99833.53
2022-12-01T17:22:25.202Z,99829.28
2022-12-01T17:24:54.516Z,99829.47
2022-12-01T17:27:23.167Z,99833.87
2022-12-01T17:29:50.482Z,99827.03
2022-12-01T17:32:17.557Z,99828.81
2022-12-01T17:34:44.583Z,99834.94
2022-12-01T17:37:14.935Z,99841.94
2022-12-01T17:39:46.653Z,99836.72
2022-12-01T17:42:13.964Z,99831.59
2022-12-01T17:44:40.971Z,99834.25
2022-12-01T17:47:07.987Z,99836.06
2022-12-01T17:49:36.454Z,99837.81
2022-12-01T17:52:07.183Z,99831.84
2022-12-01T17:54:34.328Z,99835.34
2022-12-01T17:57:01.701Z,99837.22
2022-12-01T17:59:28.749Z,99833.84
2022-12-01T18:01:55.902Z,99840.00
2022-12-01T18:04:23.256Z,99836.59
2022-12-01T18:06:54.287Z,99841.87
2022-12-01T18:09:21.944Z,99848.00
2022-12-01T18:11:49.615Z,99838.47
2022-12-01T18:14:17.847Z,99840.31
2022-12-01T18:16:45.346Z,99842.13
2022-12-01T18:19:13.034Z,99835.97
2022-12-01T18:21:40.492Z,99836.91
2022-12-01T18:24:11.287Z,99837.84
2022-12-01T18:26:40.590Z,99843.09
2022-12-01T18:29:12.207Z,99847.47
2022-12-01T18:31:40.019Z,99844.84
2022-12-01T18:34:09.023Z,99838.81
2022-12-01T18:36:38.180Z,99837.06
2022-12-01T18:39:07.899Z,99836.25
2022-12-01T18:41:36.087Z,99841.50
2022-12-01T18:44:06.725Z,99840.66
2022-12-01T18:46:34.692Z,99838.06
2022-12-01T18:49:02.997Z,99848.53
2022-12-01T18:51:31.907Z,99845.97
2022-12-01T18:54:01.142Z,99846.78
2022-12-01T18:56:29.526Z,99839.91
2022-12-01T18:59:02.177Z,99846.94
2022-12-01T19:01:36.345Z,99848.69
2022-12-01T19:04:04.955Z,99846.97
2022-12-01T19:06:36.141Z,99843.50
2022-12-01T19:09:05.517Z,99842.66
2022-12-01T19:11:33.463Z,99844.44
2022-12-01T19:16:55.990Z,99848.81
2022-12-01T19:19:23.397Z,99848.81
2022-12-01T19:21:51.097Z,99844.47
2022-12-01T19:24:19.612Z,99847.03
2022-12-01T19:26:46.610Z,99847.00
2022-12-01T19:29:13.605Z,99859.19
2022-12-01T19:31:40.980Z,99852.22
2022-12-01T19:34:08.084Z,99853.94
2022-12-01T19:36:35.112Z,99849.59
2022-12-01T19:39:04.361Z,99847.03
2022-12-01T19:41:36.941Z,99848.75
2022-12-01T19:44:05.108Z,99853.91
2022-12-01T19:46:32.344Z,99851.31
2022-12-01T19:49:01.349Z,99851.31
2022-12-01T19:51:37.011Z,99852.12
2022-12-01T19:54:06.313Z,99857.41
2022-12-01T19:56:33.762Z,99857.41
2022-12-01T19:59:00.899Z,99854.81
2022-12-01T20:01:28.375Z,99854.00
2022-12-01T20:03:55.803Z,99855.69
2022-12-01T20:06:28.277Z,99854.06
2022-12-01T20:09:00.069Z,99847.94
2022-12-01T20:11:32.867Z,99858.38
2022-12-01T20:14:00.257Z,99858.44
2022-12-01T20:16:28.394Z,99858.47
2022-12-01T20:18:55.909Z,99861.06
2022-12-01T20:21:29.244Z,99857.63
2022-12-01T20:24:08.517Z,99862.03
2022-12-01T20:26:47.503Z,99863.78
2022-12-01T20:29:20.878Z,99865.50
2022-12-01T20:31:50.217Z,99857.75
2022-12-01T20:34:21.724Z,99868.22
2022-12-01T20:36:49.051Z,99861.28
2022-12-01T20:39:16.148Z,99857.84
2022-12-01T20:41:44.535Z,99857.88
2022-12-01T20:44:13.120Z,99866.66
2022-12-01T20:46:45.773Z,99869.28
2022-12-01T20:49:15.212Z,99864.06
2022-12-01T20:51:42.689Z,99869.38
2022-12-01T20:54:28.007Z,99872.06
2022-12-01T20:56:58.965Z,99871.22
2022-12-01T20:59:26.529Z,99869.56
2022-12-01T21:01:53.700Z,99873.06
2022-12-01T21:04:21.091Z,99878.34
2022-12-01T21:06:49.934Z,99879.19
2022-12-01T21:09:18.027Z,99887.03
2022-12-01T21:12:06.518Z,99891.41
2022-12-01T21:14:44.583Z,99891.41
2022-12-01T21:17:26.475Z,99892.31
2022-12-01T21:20:01.640Z,99894.06
2022-12-01T21:22:30.253Z,99901.06
2022-12-01T21:25:07.480Z,99901.94
2022-12-01T21:27:34.785Z,99895.91
2022-12-01T21:30:07.299Z,99895.91
2022-12-01T21:32:34.961Z,99895.91
2022-12-01T21:35:15.903Z,99891.56
2022-12-01T21:37:43.568Z,99898.47
2022-12-01T21:40:28.761Z,99903.72
2022-12-01T21:43:01.305Z,99901.94
2022-12-01T21:45:30.380Z,99895.91
2022-12-01T21:48:05.857Z,99900.16
2022-12-01T21:50:33.227Z,99894.97
2022-12-01T21:53:01.154Z,99891.50
2022-12-01T21:55:28.207Z,99906.25
2022-12-01T21:57:55.225Z,99891.47
2022-12-01T22:00:35.302Z,99900.19
2022-12-01T22:03:08.581Z,99898.41
2022-12-01T22:05:40.394Z,99896.66
2022-12-01T22:08:07.730Z,99894.97
2022-12-01T22:10:55.279Z,99901.00
2022-12-01T22:13:26.145Z,99898.44
2022-12-01T22:15:55.274Z,99900.19
2022-12-01T22:18:25.406Z,99898.44
2022-12-01T22:20:53.560Z,99899.28
2022-12-01T22:23:27.767Z,99894.06
2022-12-01T22:25:55.030Z,99892.28
2022-12-01T22:28:24.696Z,99899.19
2022-12-01T22:30:52.401Z,99890.47
2022-12-01T22:33:23.339Z,99882.56
2022-12-01T22:35:52.474Z,99888.53
2022-12-01T22:38:20.278Z,99884.97
2022-12-01T22:41:06.388Z,99879.78
2022-12-01T22:43:41.401Z,99884.94
2022-12-01T22:46:22.551Z,99879.66
2022-12-01T22:48:52.712Z,99879.63
2022-12-01T22:51:25.396Z,99888.25
2022-12-01T22:54:12.880Z,99882.09
2022-12-01T22:56:42.929Z,99871.66
2022-12-01T22:59:22.658Z,99870.69
2022-12-01T23:01:59.007Z,99868.09
2022-12-01T23:04:33.143Z,99858.59
2022-12-01T23:07:09.509Z,99861.09
2022-12-01T23:09:40.873Z,99860.16
2022-12-01T23:12:10.837Z,99861.91
2022-12-01T23:14:47.430Z,99858.41
2022-12-01T23:17:20.017Z,99864.44
2022-12-01T23:19:49.830Z,99870.50
2022-12-01T23:22:16.946Z,99871.37
2022-12-01T23:24:44.174Z,99872.19
2022-12-01T23:27:11.545Z,99871.25
2022-12-01T23:29:38.603Z,99860.03
2022-12-01T23:32:06.023Z,99867.81
2022-12-01T23:34:33.906Z,99869.56
2022-12-01T23:37:01.589Z,99873.88
2022-12-01T23:39:35.237Z,99876.44
2022-12-01T23:42:02.907Z,99872.94
2022-12-01T23:44:40.821Z,99872.13
2022-12-01T23:47:24.860Z,99866.88
2022-12-01T23:49:59.021Z,99864.34
2022-12-01T23:52:35.005Z,99875.59
2022-12-01T23:55:07.847Z,99875.62
2022-12-01T23:57:37.285Z,99872.94
